createdAt,value
2023-04-16T00:01:41.339Z,9.87
2023-04-16T00:04:09.264Z,9.77
2023-04-16T00:06:37.123Z,10.20
2023-04-16T00:09:04.889Z,10.03
2023-04-16T00:11:32.597Z,10.13
2023-04-16T00:14:00.360Z,10.10
2023-04-16T00:16:28.913Z,12.13
2023-04-16T00:18:57.974Z,10.73
2023-04-16T00:21:26.425Z,10.53
2023-04-16T00:23:54.927Z,10.47
2023-04-16T00:26:22.656Z,11.57
2023-04-16T00:28:50.377Z,10.13
2023-04-16T00:31:18.175Z,10.93
2023-04-16T00:33:45.892Z,10.40
2023-04-16T00:36:14.931Z,11.40
2023-04-16T00:38:42.670Z,10.90
2023-04-16T00:41:10.421Z,12.13
2023-04-16T00:43:38.131Z,13.23
2023-04-16T00:46:07.119Z,13.03
2023-04-16T00:48:35.618Z,14.30
2023-04-16T00:51:05.591Z,13.07
2023-04-16T00:53:35.508Z,13.07
2023-04-16T00:56:04.229Z,12.50
2023-04-16T00:58:32.666Z,13.60
2023-04-16T01:01:00.702Z,12.20
2023-04-16T01:03:36.135Z,16.93
2023-04-16T01:06:04.193Z,12.80
2023-04-16T01:08:31.936Z,23.47
2023-04-16T01:11:00.975Z,13.33
2023-04-16T01:13:28.768Z,16.73
2023-04-16T01:15:56.507Z,15.93
2023-04-16T01:18:25.088Z,14.90
2023-04-16T01:20:54.135Z,17.53
2023-04-16T01:23:22.569Z,15.33
2023-04-16T01:25:50.287Z,19.67
2023-04-16T01:28:18.304Z,13.77
2023-04-16T01:30:46.207Z,13.63
2023-04-16T01:35:57.766Z,13.17
2023-04-16T01:38:25.523Z,13.77
2023-04-16T01:40:57.470Z,18.30
2023-04-16T01:43:25.239Z,14.03
2023-04-16T01:45:54.782Z,16.97
2023-04-16T01:48:22.696Z,21.10
2023-04-16T01:50:50.408Z,16.40
2023-04-16T01:53:19.534Z,17.87
2023-04-16T01:55:47.292Z,15.27
2023-04-16T01:58:15.140Z,17.83
2023-04-16T02:00:42.962Z,14.33
2023-04-16T02:03:11.176Z,15.67
2023-04-16T02:05:38.974Z,15.50
2023-04-16T02:08:07.251Z,15.93
2023-04-16T02:10:36.328Z,18.17
2023-04-16T02:13:04.081Z,17.30
2023-04-16T02:15:31.811Z,16.47
2023-04-16T02:17:59.626Z,17.80
2023-04-16T02:20:27.438Z,18.13
2023-04-16T02:22:55.145Z,18.60
2023-04-16T02:25:23.124Z,18.30
2023-04-16T02:27:52.189Z,18.00
2023-04-16T02:30:20.067Z,14.43
2023-04-16T02:32:47.842Z,17.00
2023-04-16T02:35:15.702Z,17.20
2023-04-16T02:37:43.431Z,17.43
2023-04-16T02:40:12.484Z,19.67
2023-04-16T02:42:40.241Z,19.03
2023-04-16T02:45:11.568Z,19.83
2023-04-16T02:47:39.345Z,18.80
2023-04-16T02:50:08.364Z,23.50
2023-04-16T02:52:36.305Z,22.63
2023-04-16T02:55:04.148Z,21.27
2023-04-16T02:57:31.910Z,27.00
2023-04-16T02:59:59.743Z,22.37
2023-04-16T03:02:28.853Z,22.77
2023-04-16T03:04:56.654Z,25.77
2023-04-16T03:07:24.600Z,26.67
2023-04-16T03:09:52.602Z,27.70
2023-04-16T03:12:20.463Z,26.20
2023-04-16T03:14:48.197Z,28.33
2023-04-16T03:17:15.907Z,25.80
2023-04-16T03:19:44.957Z,26.27
2023-04-16T03:22:12.694Z,28.10
2023-04-16T03:24:40.616Z,27.17
2023-04-16T03:27:08.370Z,28.20
2023-04-16T03:29:37.751Z,28.43
2023-04-16T03:32:05.738Z,30.20
2023-04-16T03:34:33.447Z,28.83
2023-04-16T03:37:02.687Z,27.93
2023-04-16T03:39:30.379Z,28.33
2023-04-16T03:41:58.101Z,27.50
2023-04-16T03:44:25.823Z,31.80
2023-04-16T03:46:53.634Z,28.90
2023-04-16T03:49:21.426Z,32.40
2023-04-16T03:51:49.154Z,27.00
2023-04-16T03:54:19.275Z,30.83
2023-04-16T03:56:48.456Z,29.73
2023-04-16T03:59:16.211Z,32.37
2023-04-16T04:01:43.959Z,31.23
2023-04-16T04:04:12.150Z,31.67
2023-04-16T04:06:40.173Z,29.37
2023-04-16T04:09:08.287Z,31.10
2023-04-16T04:11:37.538Z,29.57
2023-04-16T04:14:05.992Z,29.13
2023-04-16T04:16:33.943Z,26.50
2023-04-16T04:19:01.725Z,28.33
2023-04-16T04:21:29.987Z,29.10
2023-04-16T04:23:57.740Z,29.23
2023-04-16T04:26:25.632Z,27.57
2023-04-16T04:28:54.741Z,27.60
2023-04-16T04:31:22.561Z,29.57
2023-04-16T04:33:50.470Z,30.23
2023-04-16T04:36:18.191Z,29.80
2023-04-16T04:38:46.191Z,32.17
2023-04-16T04:41:13.900Z,30.87
2023-04-16T04:43:41.800Z,34.13
2023-04-16T04:46:10.885Z,31.73
2023-04-16T04:48:38.622Z,34.70
2023-04-16T04:51:06.717Z,31.40
2023-04-16T04:53:34.437Z,34.00
2023-04-16T04:56:11.601Z,36.27
2023-04-16T04:58:40.594Z,34.10
2023-04-16T05:01:09.754Z,36.73
2023-04-16T05:03:37.771Z,37.57
2023-04-16T05:06:06.110Z,35.43
2023-04-16T05:08:33.931Z,36.87
2023-04-16T05:11:01.759Z,38.60
2023-04-16T05:13:29.598Z,40.83
2023-04-16T05:15:57.355Z,36.33
2023-04-16T05:18:26.714Z,37.37
2023-04-16T05:20:54.472Z,38.70
2023-04-16T05:23:22.357Z,42.30
2023-04-16T05:25:50.226Z,40.40
2023-04-16T05:28:17.999Z,38.00
2023-04-16T05:30:45.791Z,35.80
2023-04-16T05:33:13.566Z,38.70
2023-04-16T05:35:42.601Z,41.87
2023-04-16T05:38:10.351Z,39.23
2023-04-16T05:40:38.158Z,42.90
2023-04-16T05:43:05.952Z,41.67
2023-04-16T05:45:39.551Z,41.83
2023-04-16T05:48:08.041Z,45.70
2023-04-16T05:50:36.297Z,42.83
2023-04-16T05:53:07.699Z,42.20
2023-04-16T05:55:36.814Z,36.20
2023-04-16T05:58:05.156Z,40.93
2023-04-16T06:00:33.313Z,40.53
2023-04-16T06:03:01.310Z,40.93
2023-04-16T06:05:29.818Z,35.17
2023-04-16T06:07:57.672Z,37.57
2023-04-16T06:10:26.828Z,35.40
2023-04-16T06:12:54.611Z,32.77
2023-04-16T06:15:22.366Z,32.93
2023-04-16T06:17:50.738Z,31.57
2023-04-16T06:20:18.496Z,33.50
2023-04-16T06:22:46.301Z,33.13
2023-04-16T06:25:15.236Z,28.93
2023-04-16T06:27:45.927Z,27.07
2023-04-16T06:30:14.677Z,34.17
2023-04-16T06:32:43.099Z,26.63
2023-04-16T06:35:11.263Z,28.47
2023-04-16T06:37:39.280Z,26.97
2023-04-16T06:40:07.957Z,26.33
2023-04-16T06:42:35.702Z,27.90
2023-04-16T06:45:05.438Z,30.57
2023-04-16T06:47:33.209Z,25.70
2023-04-16T06:50:01.095Z,29.50
2023-04-16T06:52:29.880Z,29.07
2023-04-16T06:54:57.759Z,31.90
2023-04-16T06:57:25.549Z,31.23
2023-04-16T06:59:53.247Z,35.23
2023-04-16T07:02:22.504Z,33.13
2023-04-16T07:04:52.283Z,30.47
2023-04-16T07:07:20.243Z,31.90
2023-04-16T07:09:47.976Z,37.53
2023-04-16T07:12:16.075Z,33.50
2023-04-16T07:14:43.895Z,31.23
2023-04-16T07:17:11.879Z,28.97
2023-04-16T07:19:40.966Z,30.47
2023-04-16T07:22:09.036Z,27.30
2023-04-16T07:24:36.797Z,28.27
2023-04-16T07:27:04.727Z,30.43
2023-04-16T07:29:32.443Z,27.60
2023-04-16T07:32:00.328Z,28.50
2023-04-16T07:34:28.099Z,30.57
2023-04-16T07:36:57.149Z,27.70
2023-04-16T07:39:24.895Z,28.93
2023-04-16T07:41:52.734Z,25.07
2023-04-16T07:44:20.465Z,29.43
2023-04-16T07:46:48.289Z,26.83
2023-04-16T07:49:16.114Z,27.83
2023-04-16T07:51:44.036Z,29.00
2023-04-16T07:54:13.201Z,25.73
2023-04-16T07:56:40.905Z,28.80
2023-04-16T08:01:42.647Z,23.87
2023-04-16T08:04:10.493Z,23.47
2023-04-16T08:06:38.364Z,22.30
2023-04-16T08:09:06.413Z,25.47
2023-04-16T08:11:35.486Z,27.70
2023-04-16T08:14:03.467Z,24.57
2023-04-16T08:16:31.260Z,26.17
2023-04-16T08:19:01.006Z,25.27
2023-04-16T08:21:29.321Z,25.23
2023-04-16T08:23:57.056Z,26.77
2023-04-16T08:26:24.862Z,20.87
2023-04-16T08:28:54.172Z,21.17
2023-04-16T08:31:22.412Z,21.30
2023-04-16T08:33:50.181Z,22.43
2023-04-16T08:36:17.929Z,21.23
2023-04-16T08:38:45.718Z,22.43
2023-04-16T08:41:15.020Z,22.17
2023-04-16T08:43:46.467Z,23.83
2023-04-16T08:46:17.797Z,23.17
2023-04-16T08:48:50.046Z,23.30
2023-04-16T08:51:20.314Z,24.07
2023-04-16T08:53:53.398Z,23.23
2023-04-16T08:56:24.066Z,22.67
2023-04-16T08:58:54.837Z,22.73
2023-04-16T09:01:26.606Z,22.07
2023-04-16T09:03:55.269Z,22.27
2023-04-16T09:06:23.543Z,19.77
2023-04-16T09:08:51.709Z,22.03
2023-04-16T09:11:19.586Z,22.43
2023-04-16T09:13:47.861Z,21.10
2023-04-16T09:16:15.954Z,17.40
2023-04-16T09:18:47.854Z,20.27
2023-04-16T09:21:16.419Z,18.30
2023-04-16T09:23:44.886Z,20.10
2023-04-16T09:26:12.621Z,18.83
2023-04-16T09:28:41.535Z,23.17
2023-04-16T09:31:10.664Z,23.83
2023-04-16T09:33:38.616Z,21.93
2023-04-16T09:36:08.310Z,26.00
2023-04-16T09:38:49.416Z,25.93
2023-04-16T09:41:17.807Z,25.00
2023-04-16T09:43:57.426Z,26.37
2023-04-16T09:46:26.224Z,25.53
2023-04-16T09:48:54.067Z,24.37
2023-04-16T09:51:23.148Z,24.80
2023-04-16T09:53:53.771Z,27.80
2023-04-16T09:56:26.096Z,30.10
2023-04-16T09:58:59.077Z,28.00
2023-04-16T10:01:27.198Z,27.33
2023-04-16T10:03:56.135Z,27.73
2023-04-16T10:06:27.228Z,24.57
2023-04-16T10:08:56.918Z,26.73
2023-04-16T10:11:25.928Z,24.47
2023-04-16T10:13:53.720Z,26.07
2023-04-16T10:16:23.948Z,28.83
2023-04-16T10:18:51.872Z,28.70
2023-04-16T10:21:20.280Z,26.40
2023-04-16T10:23:49.685Z,25.90
2023-04-16T10:26:19.056Z,24.47
2023-04-16T10:28:47.049Z,25.60
2023-04-16T10:31:15.068Z,24.57
2023-04-16T10:33:44.946Z,21.90
2023-04-16T10:36:13.974Z,25.10
2023-04-16T10:38:43.080Z,20.30
2023-04-16T10:41:12.203Z,20.03
2023-04-16T10:43:41.986Z,22.17
2023-04-16T10:46:21.341Z,18.40
2023-04-16T10:48:51.487Z,20.07
2023-04-16T10:51:28.000Z,18.20
2023-04-16T10:53:57.146Z,16.23
2023-04-16T10:56:27.326Z,16.40
2023-04-16T10:58:56.888Z,17.37
2023-04-16T11:01:35.415Z,14.87
2023-04-16T11:04:30.880Z,16.73
2023-04-16T11:07:03.896Z,15.33
2023-04-16T11:09:52.143Z,14.77
2023-04-16T11:12:22.517Z,13.47
2023-04-16T11:14:51.943Z,12.47
2023-04-16T11:17:20.388Z,12.57
2023-04-16T11:19:48.840Z,12.30
2023-04-16T11:22:18.655Z,15.70
2023-04-16T11:24:47.476Z,14.30
2023-04-16T11:27:16.217Z,15.27
2023-04-16T11:29:47.463Z,14.03
2023-04-16T11:32:22.922Z,15.17
2023-04-16T11:34:51.150Z,15.83
2023-04-16T11:37:21.809Z,15.37
2023-04-16T11:39:53.868Z,19.27
2023-04-16T11:42:23.679Z,16.33
2023-04-16T11:44:57.131Z,16.40
2023-04-16T11:47:25.715Z,20.40
2023-04-16T11:49:53.646Z,18.43
2023-04-16T11:52:28.840Z,16.90
2023-04-16T11:54:56.761Z,20.40
2023-04-16T11:57:28.933Z,19.77
2023-04-16T12:00:02.610Z,21.97
2023-04-16T12:02:39.031Z,19.27
2023-04-16T12:05:09.390Z,19.57
2023-04-16T12:07:55.246Z,20.93
2023-04-16T12:10:23.246Z,23.07
2023-04-16T12:12:51.893Z,24.30
2023-04-16T12:15:21.273Z,21.13
2023-04-16T12:17:50.542Z,21.60
2023-04-16T12:20:18.552Z,20.63
2023-04-16T12:22:49.524Z,20.30
2023-04-16T12:25:18.875Z,21.43
2023-04-16T12:27:49.499Z,20.33
2023-04-16T12:30:22.427Z,23.20
2023-04-16T12:32:52.271Z,20.20
2023-04-16T12:35:31.062Z,21.83
2023-04-16T12:37:58.865Z,22.10
2023-04-16T12:40:26.772Z,22.17
2023-04-16T12:42:54.932Z,22.17
2023-04-16T12:45:24.139Z,31.20
2023-04-16T12:47:51.971Z,23.13
2023-04-16T12:50:19.804Z,27.37
2023-04-16T12:52:47.564Z,22.00
2023-04-16T12:55:15.650Z,22.87
2023-04-16T12:57:43.442Z,24.87
2023-04-16T13:00:12.820Z,21.60
2023-04-16T13:02:42.145Z,22.13
2023-04-16T13:05:10.669Z,22.03
2023-04-16T13:07:38.746Z,24.10
2023-04-16T13:10:07.422Z,22.40
2023-04-16T13:12:35.153Z,22.00
2023-04-16T13:15:03.064Z,23.93
2023-04-16T13:17:31.240Z,23.73
2023-04-16T13:20:00.415Z,24.43
2023-04-16T13:22:28.161Z,25.03
2023-04-16T13:24:57.148Z,30.23
2023-04-16T13:27:25.052Z,27.20
2023-04-16T13:29:53.072Z,25.67
2023-04-16T13:32:20.993Z,28.23
2023-04-16T13:34:48.789Z,25.33
2023-04-16T13:37:17.810Z,23.20
2023-04-16T13:39:45.680Z,26.20
2023-04-16T13:42:13.432Z,25.03
2023-04-16T13:44:41.208Z,25.10
2023-04-16T13:47:08.979Z,26.13
2023-04-16T13:49:36.842Z,27.60
2023-04-16T13:52:04.972Z,25.53
2023-04-16T13:54:34.479Z,23.97
2023-04-16T13:57:02.239Z,23.67
2023-04-16T13:59:30.248Z,24.90
2023-04-16T14:01:58.547Z,26.43
2023-04-16T14:04:26.547Z,23.10
2023-04-16T14:06:54.363Z,22.10
2023-04-16T14:09:22.211Z,23.60
2023-04-16T14:11:52.290Z,23.10
2023-04-16T14:14:20.295Z,21.80
2023-04-16T14:16:48.442Z,24.30
2023-04-16T14:19:16.318Z,21.70
2023-04-16T14:21:44.291Z,26.10
2023-04-16T14:24:12.149Z,23.07
2023-04-16T14:26:39.888Z,24.47
2023-04-16T14:29:10.509Z,24.27
2023-04-16T14:31:38.610Z,25.87
2023-04-16T14:34:06.410Z,23.07
2023-04-16T14:36:34.384Z,26.13
2023-04-16T14:39:02.298Z,22.67
2023-04-16T14:41:30.021Z,23.43
2023-04-16T14:43:57.746Z,24.03
2023-04-16T14:46:27.188Z,24.73
2023-04-16T14:48:55.465Z,21.80
2023-04-16T14:51:23.352Z,25.10
2023-04-16T14:53:51.303Z,22.07
2023-04-16T14:56:19.075Z,22.13
2023-04-16T14:58:46.851Z,26.87
2023-04-16T15:01:14.951Z,21.80
2023-04-16T15:03:44.587Z,24.30
2023-04-16T15:06:13.840Z,22.40
2023-04-16T15:08:41.675Z,20.17
2023-04-16T15:11:09.486Z,25.13
2023-04-16T15:13:37.515Z,20.87
2023-04-16T15:16:05.777Z,20.70
2023-04-16T15:18:34.393Z,19.20
2023-04-16T15:21:04.426Z,18.80
2023-04-16T15:23:32.157Z,21.03
2023-04-16T15:26:00.056Z,20.13
2023-04-16T15:28:28.013Z,19.00
2023-04-16T15:30:56.165Z,20.80
2023-04-16T15:33:24.046Z,18.03
2023-04-16T15:35:52.460Z,18.77
2023-04-16T15:38:22.062Z,22.90
2023-04-16T15:40:49.847Z,19.07
2023-04-16T15:43:17.759Z,18.47
2023-04-16T15:45:45.535Z,17.80
2023-04-16T15:48:13.352Z,20.07
2023-04-16T15:50:41.166Z,20.27
2023-04-16T15:53:09.073Z,20.33
2023-04-16T15:55:38.259Z,20.33
2023-04-16T15:58:06.161Z,19.63
2023-04-16T16:00:33.973Z,22.37
2023-04-16T16:03:01.783Z,24.97
2023-04-16T16:05:29.734Z,20.00
2023-04-16T16:07:58.798Z,20.63
2023-04-16T16:10:26.736Z,18.30
2023-04-16T16:12:57.222Z,19.50
2023-04-16T16:15:24.989Z,21.23
2023-04-16T16:17:53.478Z,19.53
2023-04-16T16:20:22.644Z,21.13
2023-04-16T16:22:52.978Z,19.87
2023-04-16T16:25:22.399Z,20.73
2023-04-16T16:27:50.268Z,19.27
2023-04-16T16:30:19.703Z,16.70
2023-04-16T16:32:47.465Z,16.77
2023-04-16T16:35:15.648Z,16.80
2023-04-16T16:37:43.500Z,20.53
2023-04-16T16:40:12.106Z,16.10
2023-04-16T16:42:39.928Z,17.73
2023-04-16T16:45:08.863Z,15.57
2023-04-16T16:47:38.187Z,15.70
2023-04-16T16:50:07.084Z,16.37
2023-04-16T16:52:34.792Z,16.90
2023-04-16T16:55:02.759Z,16.37
2023-04-16T16:57:30.669Z,17.00
2023-04-16T16:59:58.963Z,15.40
2023-04-16T17:02:27.303Z,17.97
2023-04-16T17:04:59.011Z,15.57
2023-04-16T17:07:27.375Z,17.20
2023-04-16T17:09:55.158Z,15.80
2023-04-16T17:12:23.588Z,18.17
2023-04-16T17:14:51.721Z,16.57
2023-04-16T17:17:19.855Z,16.43
2023-04-16T17:19:47.738Z,16.03
2023-04-16T17:22:16.856Z,15.80
2023-04-16T17:24:44.649Z,14.33
2023-04-16T17:27:12.471Z,15.57
2023-04-16T17:29:40.229Z,16.80
2023-04-16T17:32:08.032Z,15.10
2023-04-16T17:34:36.117Z,15.30
2023-04-16T17:37:03.865Z,14.27
2023-04-16T17:39:32.914Z,14.17
2023-04-16T17:42:03.010Z,19.40
2023-04-16T17:44:30.880Z,14.83
2023-04-16T17:46:58.750Z,15.47
2023-04-16T17:49:26.647Z,17.90
2023-04-16T17:51:54.953Z,14.77
2023-04-16T17:54:22.731Z,15.90
2023-04-16T17:56:51.911Z,17.33
2023-04-16T17:59:19.696Z,15.50
2023-04-16T18:01:49.637Z,17.90
2023-04-16T18:04:18.109Z,15.93
2023-04-16T18:06:46.260Z,16.53
2023-04-16T18:09:14.467Z,19.50
2023-04-16T18:11:42.229Z,16.70
2023-04-16T18:14:13.486Z,19.90
2023-04-16T18:16:41.850Z,14.33
2023-04-16T18:19:09.812Z,15.27
2023-04-16T18:21:37.608Z,16.17
2023-04-16T18:24:05.547Z,20.30
2023-04-16T18:26:35.712Z,12.70
2023-04-16T18:29:04.065Z,13.17
2023-04-16T18:31:33.298Z,13.37
2023-04-16T18:34:01.165Z,13.00
2023-04-16T18:36:29.047Z,13.43
2023-04-16T18:39:02.026Z,17.23
2023-04-16T18:41:43.726Z,13.83
2023-04-16T18:44:11.694Z,14.77
2023-04-16T18:46:40.821Z,14.60
2023-04-16T18:49:08.863Z,14.53
2023-04-16T18:51:36.802Z,18.10
2023-04-16T18:54:04.682Z,15.43
2023-04-16T18:56:32.450Z,14.80
2023-04-16T18:59:00.224Z,18.93
2023-04-16T19:01:28.136Z,16.37
2023-04-16T19:03:57.493Z,17.17
2023-04-16T19:06:27.550Z,19.00
2023-04-16T19:08:55.598Z,16.53
2023-04-16T19:11:23.346Z,16.63
2023-04-16T19:13:51.167Z,15.60
2023-04-16T19:16:19.000Z,19.20
2023-04-16T19:18:46.900Z,18.60
2023-04-16T19:21:16.103Z,18.97
2023-04-16T19:23:43.810Z,19.93
2023-04-16T19:26:11.623Z,17.10
2023-04-16T19:28:39.716Z,16.53
2023-04-16T19:31:07.577Z,19.57
2023-04-16T19:33:36.035Z,21.07
2023-04-16T19:36:03.809Z,19.70
2023-04-16T19:38:32.905Z,17.20
2023-04-16T19:41:00.658Z,17.43
2023-04-16T19:43:30.748Z,18.57
2023-04-16T19:45:59.018Z,19.40
2023-04-16T19:48:26.852Z,17.10
2023-04-16T19:50:54.636Z,16.73
2023-04-16T19:53:22.437Z,17.43
2023-04-16T19:55:51.528Z,19.97
2023-04-16T19:58:19.268Z,19.47
2023-04-16T20:00:47.324Z,20.53
2023-04-16T20:03:15.522Z,17.90
2023-04-16T20:05:43.367Z,20.27
2023-04-16T20:08:11.110Z,21.17
2023-04-16T20:10:38.898Z,19.03
2023-04-16T20:13:11.814Z,19.67
2023-04-16T20:15:39.552Z,20.27
2023-04-16T20:18:08.503Z,18.80
2023-04-16T20:20:37.168Z,22.10
2023-04-16T20:23:05.004Z,22.53
2023-04-16T20:25:32.737Z,21.97
2023-04-16T20:28:00.658Z,21.37
2023-04-16T20:30:30.972Z,25.17
2023-04-16T20:32:58.781Z,23.60
2023-04-16T20:35:27.136Z,23.70
2023-04-16T20:37:54.840Z,23.93
2023-04-16T20:40:23.950Z,23.30
2023-04-16T20:42:52.118Z,24.43
2023-04-16T20:45:20.133Z,24.03
2023-04-16T20:47:49.231Z,22.80
2023-04-16T20:50:17.172Z,21.80
2023-04-16T20:52:44.926Z,27.03
2023-04-16T20:55:12.631Z,25.77
2023-04-16T20:57:40.544Z,21.40
2023-04-16T21:00:11.948Z,25.40
2023-04-16T21:02:39.967Z,25.23
2023-04-16T21:05:13.728Z,28.47
2023-04-16T21:07:42.147Z,24.73
2023-04-16T21:10:10.858Z,23.73
2023-04-16T21:12:38.613Z,25.60
2023-04-16T21:15:07.304Z,26.47
2023-04-16T21:17:35.046Z,25.70
2023-04-16T21:20:06.860Z,24.53
2023-04-16T21:22:35.931Z,26.33
2023-04-16T21:25:03.844Z,25.43
2023-04-16T21:27:31.575Z,26.97
2023-04-16T21:29:59.297Z,28.83
2023-04-16T21:32:27.019Z,32.37
2023-04-16T21:34:54.745Z,28.37
2023-04-16T21:37:22.557Z,28.17
2023-04-16T21:39:51.593Z,28.03
2023-04-16T21:42:19.299Z,26.63
2023-04-16T21:44:47.026Z,27.23
2023-04-16T21:47:14.852Z,30.33
2023-04-16T21:49:42.679Z,27.67
2023-04-16T21:52:14.177Z,27.33
2023-04-16T21:54:42.010Z,25.53
2023-04-16T21:57:11.565Z,31.30
2023-04-16T21:59:39.932Z,28.43
2023-04-16T22:02:07.833Z,27.60
2023-04-16T22:04:38.722Z,26.67
2023-04-16T22:07:08.884Z,28.43
2023-04-16T22:09:36.663Z,26.83
2023-04-16T22:12:06.791Z,27.23
2023-04-16T22:14:39.220Z,26.40
2023-04-16T22:17:10.012Z,25.53
2023-04-16T22:19:39.270Z,26.07
2023-04-16T22:22:06.996Z,25.20
2023-04-16T22:24:34.752Z,28.03
2023-04-16T22:27:02.592Z,26.03
2023-04-16T22:29:30.325Z,26.63
2023-04-16T22:32:00.682Z,25.53
2023-04-16T22:34:28.496Z,25.00
2023-04-16T22:36:56.292Z,26.67
2023-04-16T22:39:24.026Z,25.70
2023-04-16T22:41:51.785Z,26.20
2023-04-16T22:44:19.515Z,28.07
2023-04-16T22:46:47.588Z,23.80
2023-04-16T22:49:16.632Z,26.50
2023-04-16T22:51:44.771Z,26.13
2023-04-16T22:54:13.900Z,28.97
2023-04-16T22:56:42.080Z,23.40
2023-04-16T22:59:09.937Z,29.23
2023-04-16T23:01:38.585Z,25.10
2023-04-16T23:04:06.509Z,27.63
2023-04-16T23:06:35.616Z,31.20
2023-04-16T23:09:05.037Z,28.07
2023-04-16T23:11:32.768Z,29.60
2023-04-16T23:14:00.611Z,33.03
2023-04-16T23:16:28.788Z,30.77
2023-04-16T23:18:56.587Z,31.37
2023-04-16T23:21:24.291Z,30.40
2023-04-16T23:23:53.421Z,32.27
2023-04-16T23:26:21.121Z,29.40
2023-04-16T23:28:48.857Z,33.00
2023-04-16T23:31:16.670Z,32.77
2023-04-16T23:33:44.409Z,31.40
2023-04-16T23:36:12.113Z,30.00
2023-04-16T23:38:39.856Z,29.70
2023-04-16T23:41:08.955Z,31.43
2023-04-16T23:43:36.670Z,28.07
2023-04-16T23:46:04.534Z,39.63
2023-04-16T23:48:32.327Z,27.20
2023-04-16T23:51:00.049Z,26.20
2023-04-16T23:53:27.798Z,27.90
2023-04-16T23:55:55.575Z,27.57
2023-04-16T23:58:24.667Z,30.27
